createdAt,value
2018-07-28T00:00:21.335Z,23.20
2018-07-28T00:02:49.897Z,23.10
2018-07-28T00:05:17.481Z,23.10
2018-07-28T00:07:45.104Z,23.10
2018-07-28T00:10:13.533Z,23.10
2018-07-28T00:12:41.998Z,23.00
2018-07-28T00:15:10.691Z,23.00
2018-07-28T00:17:38.830Z,23.00
2018-07-28T00:20:08.098Z,23.00
2018-07-28T00:22:35.801Z,23.00
2018-07-28T00:25:04.045Z,22.90
2018-07-28T00:27:31.666Z,22.90
2018-07-28T00:29:59.308Z,22.80
2018-07-28T00:32:26.885Z,22.80
2018-07-28T00:34:54.453Z,22.80
2018-07-28T00:37:22.026Z,22.80
2018-07-28T00:39:49.599Z,22.70
2018-07-28T00:42:17.208Z,22.70
2018-07-28T00:44:44.843Z,22.70
2018-07-28T00:47:12.379Z,22.70
2018-07-28T00:52:07.423Z,22.60
2018-07-28T00:54:35.010Z,22.50
2018-07-28T00:57:02.602Z,22.50
2018-07-28T00:59:30.208Z,22.50
2018-07-28T01:01:57.791Z,22.50
2018-07-28T01:04:25.398Z,22.40
2018-07-28T01:09:20.606Z,22.30
2018-07-28T01:11:48.186Z,22.30
2018-07-28T01:14:15.900Z,22.30
2018-07-28T01:16:43.496Z,22.20
2018-07-28T01:19:11.097Z,22.20
2018-07-28T01:21:38.718Z,22.20
2018-07-28T01:24:06.473Z,22.20
2018-07-28T01:26:34.069Z,22.30
2018-07-28T01:29:07.286Z,22.20
2018-07-28T01:31:34.912Z,22.30
2018-07-28T01:34:02.476Z,22.30
2018-07-28T01:36:30.032Z,22.30
2018-07-28T01:38:57.650Z,22.30
2018-07-28T01:41:25.199Z,22.30
2018-07-28T01:43:52.791Z,22.30
2018-07-28T01:46:20.400Z,22.20
2018-07-28T01:48:47.972Z,22.30
2018-07-28T01:51:15.550Z,22.30
2018-07-28T01:53:43.137Z,22.20
2018-07-28T01:56:10.687Z,22.20
2018-07-28T01:58:38.405Z,22.20
2018-07-28T02:01:06.022Z,22.20
2018-07-28T02:03:33.613Z,22.20
2018-07-28T02:06:01.219Z,22.20
2018-07-28T02:08:28.811Z,22.20
2018-07-28T02:10:56.388Z,22.10
2018-07-28T02:13:24.006Z,22.10
2018-07-28T02:18:19.113Z,22.00
2018-07-28T02:20:46.745Z,22.00
2018-07-28T02:23:14.337Z,22.00
2018-07-28T02:25:41.941Z,22.00
2018-07-28T02:28:09.512Z,22.00
2018-07-28T02:30:37.220Z,22.00
2018-07-28T02:33:04.832Z,22.00
2018-07-28T02:35:32.748Z,22.00
2018-07-28T02:38:00.317Z,21.90
2018-07-28T02:40:27.941Z,22.00
2018-07-28T02:42:55.526Z,21.90
2018-07-28T02:45:23.162Z,21.90
2018-07-28T02:47:50.809Z,21.80
2018-07-28T02:50:18.440Z,21.80
2018-07-28T02:52:47.731Z,21.80
2018-07-28T02:55:15.350Z,21.70
2018-07-28T02:57:42.907Z,21.70
2018-07-28T03:00:10.542Z,21.70
2018-07-28T03:02:38.100Z,21.70
2018-07-28T03:05:06.458Z,21.60
2018-07-28T03:07:34.018Z,21.60
2018-07-28T03:10:01.624Z,21.60
2018-07-28T03:12:29.136Z,21.60
2018-07-28T03:14:56.713Z,21.50
2018-07-28T03:17:24.308Z,21.50
2018-07-28T03:19:51.907Z,21.50
2018-07-28T03:22:19.530Z,21.40
2018-07-28T03:24:47.157Z,21.40
2018-07-28T03:27:14.744Z,21.40
2018-07-28T03:29:42.329Z,21.40
2018-07-28T03:32:09.950Z,21.40
2018-07-28T03:34:37.519Z,21.40
2018-07-28T03:37:05.271Z,21.40
2018-07-28T03:39:32.837Z,21.40
2018-07-28T03:42:00.435Z,21.40
2018-07-28T03:44:27.983Z,21.40
2018-07-28T03:46:55.596Z,21.50
2018-07-28T03:49:23.212Z,21.40
2018-07-28T03:51:50.751Z,21.50
2018-07-28T03:54:18.368Z,21.50
2018-07-28T03:56:45.986Z,21.50
2018-07-28T03:59:13.608Z,21.40
2018-07-28T04:01:41.230Z,21.40
2018-07-28T04:04:08.851Z,21.40
2018-07-28T04:06:36.451Z,21.40
2018-07-28T04:09:06.805Z,21.50
2018-07-28T04:11:34.433Z,21.50
2018-07-28T04:14:02.029Z,21.60
2018-07-28T04:16:29.599Z,21.50
2018-07-28T04:18:57.167Z,21.60
2018-07-28T04:21:24.722Z,21.60
2018-07-28T04:23:52.283Z,21.60
2018-07-28T04:26:19.894Z,21.60
2018-07-28T04:28:47.485Z,21.60
2018-07-28T04:31:15.079Z,21.60
2018-07-28T04:33:42.679Z,21.60
2018-07-28T04:36:10.236Z,21.60
2018-07-28T04:38:37.818Z,21.60
2018-07-28T04:41:05.467Z,21.60
2018-07-28T04:43:33.020Z,21.60
2018-07-28T04:48:28.056Z,21.60
2018-07-28T04:50:55.638Z,21.60
2018-07-28T04:53:23.219Z,21.60
2018-07-28T04:55:50.799Z,21.60
2018-07-28T04:58:18.382Z,21.70
2018-07-28T05:00:45.948Z,21.60
2018-07-28T05:03:13.594Z,21.70
2018-07-28T05:05:41.170Z,21.60
2018-07-28T05:08:08.734Z,21.70
2018-07-28T05:10:36.316Z,21.60
2018-07-28T05:13:04.128Z,21.60
2018-07-28T05:15:31.715Z,21.60
2018-07-28T05:17:59.373Z,21.60
2018-07-28T05:20:26.948Z,21.70
2018-07-28T05:22:54.545Z,21.60
2018-07-28T05:25:22.219Z,21.60
2018-07-28T05:27:49.830Z,21.60
2018-07-28T05:30:17.412Z,21.60
2018-07-28T05:32:45.020Z,21.70
2018-07-28T05:35:12.670Z,21.70
2018-07-28T05:37:40.354Z,21.70
2018-07-28T05:40:07.989Z,21.80
2018-07-28T05:42:35.684Z,21.90
2018-07-28T05:45:03.819Z,22.00
2018-07-28T05:47:31.366Z,22.00
2018-07-28T05:49:59.032Z,22.10
2018-07-28T05:52:26.598Z,22.20
2018-07-28T05:54:54.348Z,22.20
2018-07-28T05:57:21.959Z,22.30
2018-07-28T05:59:49.511Z,22.40
2018-07-28T06:02:17.084Z,22.50
2018-07-28T06:04:44.777Z,22.50
2018-07-28T06:07:12.432Z,22.70
2018-07-28T06:09:40.019Z,22.70
2018-07-28T06:12:07.658Z,22.70
2018-07-28T06:14:35.282Z,22.80
2018-07-28T06:17:02.933Z,22.90
2018-07-28T06:19:30.575Z,23.00
2018-07-28T06:21:58.230Z,23.00
2018-07-28T06:24:25.778Z,23.00
2018-07-28T06:26:53.409Z,23.00
2018-07-28T06:29:21.015Z,23.10
2018-07-28T06:31:48.721Z,23.10
2018-07-28T06:34:16.247Z,23.10
2018-07-28T06:36:43.856Z,23.10
2018-07-28T06:39:13.165Z,23.20
2018-07-28T06:41:41.325Z,23.20
2018-07-28T06:44:08.991Z,23.20
2018-07-28T06:46:36.816Z,23.30
2018-07-28T06:49:04.830Z,23.40
2018-07-28T06:51:32.463Z,23.40
2018-07-28T06:54:00.076Z,23.40
2018-07-28T06:56:27.664Z,23.50
2018-07-28T06:58:55.244Z,23.50
2018-07-28T07:01:22.893Z,23.60
2018-07-28T07:03:50.538Z,23.70
2018-07-28T07:06:18.102Z,23.70
2018-07-28T07:08:45.728Z,23.80
2018-07-28T07:11:13.324Z,23.80
2018-07-28T07:13:41.057Z,23.90
2018-07-28T07:16:08.632Z,24.00
2018-07-28T07:18:36.255Z,24.10
2018-07-28T07:21:03.876Z,24.20
2018-07-28T07:23:31.453Z,24.50
2018-07-28T07:26:02.165Z,24.70
2018-07-28T07:28:29.707Z,25.00
2018-07-28T07:30:57.328Z,25.10
2018-07-28T07:33:25.010Z,25.30
2018-07-28T07:35:52.570Z,25.30
2018-07-28T07:38:20.117Z,25.50
2018-07-28T07:40:47.796Z,25.70
2018-07-28T07:43:15.346Z,25.90
2018-07-28T07:45:42.939Z,26.10
2018-07-28T07:48:10.653Z,26.30
2018-07-28T07:50:38.259Z,26.40
2018-07-28T07:53:05.848Z,26.40
2018-07-28T07:55:33.446Z,26.50
2018-07-28T07:58:00.978Z,26.60
2018-07-28T08:00:28.544Z,26.60
2018-07-28T08:02:56.138Z,26.60
2018-07-28T08:05:23.761Z,26.60
2018-07-28T08:07:51.836Z,26.60
2018-07-28T08:10:19.488Z,26.70
2018-07-28T08:12:47.188Z,26.70
2018-07-28T08:15:14.747Z,26.80
2018-07-28T08:17:42.360Z,26.80
2018-07-28T08:20:09.968Z,26.90
2018-07-28T08:22:37.616Z,26.90
2018-07-28T08:25:05.408Z,26.90
2018-07-28T08:27:33.145Z,26.90
2018-07-28T08:30:00.776Z,26.80
2018-07-28T08:32:28.413Z,26.70
2018-07-28T08:34:55.973Z,26.60
2018-07-28T08:37:23.664Z,26.60
2018-07-28T08:39:51.357Z,26.50
2018-07-28T08:42:18.912Z,26.40
2018-07-28T08:44:46.587Z,26.30
2018-07-28T08:47:14.200Z,26.30
2018-07-28T08:49:42.069Z,26.10
2018-07-28T08:52:09.687Z,26.10
2018-07-28T08:54:37.283Z,26.10
2018-07-28T08:57:04.987Z,26.10
2018-07-28T08:59:32.631Z,26.00
2018-07-28T09:02:00.303Z,26.00
2018-07-28T09:04:27.881Z,25.90
2018-07-28T09:06:56.451Z,25.90
2018-07-28T09:09:24.791Z,25.90
2018-07-28T09:11:52.422Z,26.00
2018-07-28T09:14:20.021Z,26.00
2018-07-28T09:16:47.624Z,26.10
2018-07-28T09:19:15.252Z,26.10
2018-07-28T09:21:42.932Z,26.10
2018-07-28T09:24:10.530Z,26.30
2018-07-28T09:26:38.181Z,26.40
2018-07-28T09:29:05.810Z,26.40
2018-07-28T09:31:33.394Z,26.40
2018-07-28T09:34:01.002Z,26.50
2018-07-28T09:36:28.692Z,26.70
2018-07-28T09:38:56.327Z,26.90
2018-07-28T09:41:24.033Z,27.00
2018-07-28T09:43:51.627Z,27.10
2018-07-28T09:46:19.235Z,27.20
2018-07-28T09:48:46.808Z,27.20
2018-07-28T09:51:14.477Z,27.30
2018-07-28T09:53:42.142Z,27.50
2018-07-28T09:56:09.814Z,27.70
2018-07-28T09:58:37.443Z,27.80
2018-07-28T10:01:10.711Z,27.90
2018-07-28T10:03:38.326Z,28.00
2018-07-28T10:06:05.945Z,28.10
2018-07-28T10:08:33.561Z,28.10
2018-07-28T10:11:01.238Z,28.10
2018-07-28T10:13:28.782Z,28.10
2018-07-28T10:15:56.420Z,28.00
2018-07-28T10:18:23.983Z,27.90
2018-07-28T10:20:51.559Z,27.80
2018-07-28T10:23:19.168Z,27.80
2018-07-28T10:25:46.752Z,27.80
2018-07-28T10:28:14.286Z,27.90
2018-07-28T10:30:41.903Z,28.00
2018-07-28T10:33:09.555Z,28.10
2018-07-28T10:35:37.176Z,28.10
2018-07-28T10:38:05.035Z,28.10
2018-07-28T10:40:32.680Z,28.00
2018-07-28T10:43:00.335Z,28.00
2018-07-28T10:45:28.042Z,28.00
2018-07-28T10:47:55.647Z,28.10
2018-07-28T10:50:23.236Z,28.20
2018-07-28T10:52:53.877Z,28.50
2018-07-28T10:55:21.559Z,28.90
2018-07-28T10:57:49.321Z,29.20
2018-07-28T11:00:17.051Z,29.50
2018-07-28T11:02:44.661Z,29.80
2018-07-28T11:05:12.315Z,30.10
2018-07-28T11:07:39.877Z,30.50
2018-07-28T11:10:08.967Z,30.70
2018-07-28T11:12:36.577Z,31.00
2018-07-28T11:15:05.530Z,31.20
2018-07-28T11:17:33.096Z,31.30
2018-07-28T11:20:00.709Z,31.40
2018-07-28T11:22:28.449Z,31.40
2018-07-28T11:24:56.053Z,31.40
2018-07-28T11:27:23.809Z,31.90
2018-07-28T11:29:51.480Z,32.30
2018-07-28T11:32:30.339Z,32.20
2018-07-28T11:35:09.158Z,32.00
2018-07-28T11:37:48.089Z,32.00
2018-07-28T11:40:26.911Z,31.70
2018-07-28T11:43:05.768Z,31.30
2018-07-28T11:45:33.342Z,31.10
2018-07-28T11:48:00.931Z,30.80
2018-07-28T11:50:28.932Z,30.40
2018-07-28T11:52:56.546Z,30.60
2018-07-28T11:55:24.122Z,31.60
2018-07-28T11:57:51.734Z,33.80
2018-07-28T12:00:19.296Z,36.40
2018-07-28T12:02:46.885Z,38.60
2018-07-28T12:05:14.515Z,40.50
2018-07-28T12:07:42.177Z,41.50
2018-07-28T12:10:09.986Z,42.50
2018-07-28T12:12:37.773Z,42.50
2018-07-28T12:15:06.014Z,42.40
2018-07-28T12:17:33.664Z,42.30
2018-07-28T12:20:01.885Z,42.50
2018-07-28T12:24:57.030Z,42.60
2018-07-28T12:27:24.907Z,43.10
2018-07-28T12:29:52.504Z,43.50
2018-07-28T12:32:20.089Z,43.40
2018-07-28T12:34:47.733Z,43.40
2018-07-28T12:37:16.284Z,42.90
2018-07-28T12:39:43.869Z,42.50
2018-07-28T12:42:11.429Z,42.40
2018-07-28T12:44:39.005Z,42.30
2018-07-28T12:47:06.661Z,42.20
2018-07-28T12:49:34.287Z,42.20
2018-07-28T12:52:01.885Z,42.30
2018-07-28T12:54:29.438Z,41.60
2018-07-28T12:56:57.065Z,41.10
2018-07-28T12:59:24.623Z,40.20
2018-07-28T13:01:52.204Z,39.20
2018-07-28T13:04:19.827Z,38.40
2018-07-28T13:06:47.411Z,37.80
2018-07-28T13:09:14.971Z,37.30
2018-07-28T13:11:42.572Z,36.50
2018-07-28T13:14:10.341Z,36.10
2018-07-28T13:16:37.949Z,35.80
2018-07-28T13:19:05.594Z,35.40
2018-07-28T13:21:33.264Z,35.20
2018-07-28T13:24:00.916Z,35.50
2018-07-28T13:26:28.524Z,35.50
2018-07-28T13:28:56.137Z,35.20
2018-07-28T13:31:23.727Z,34.80
2018-07-28T13:33:51.285Z,34.40
2018-07-28T13:36:18.869Z,33.80
2018-07-28T13:38:46.443Z,32.90
2018-07-28T13:41:14.075Z,32.50
2018-07-28T13:43:41.683Z,32.00
2018-07-28T13:46:09.391Z,31.80
2018-07-28T13:48:36.999Z,31.50
2018-07-28T13:51:05.031Z,31.40
2018-07-28T13:53:32.665Z,31.10
2018-07-28T13:56:00.798Z,31.00
2018-07-28T13:58:28.518Z,30.80
2018-07-28T14:00:56.094Z,30.70
2018-07-28T14:03:23.744Z,30.90
2018-07-28T14:05:51.314Z,31.20
2018-07-28T14:08:18.920Z,31.30
2018-07-28T14:10:46.635Z,31.60
2018-07-28T14:13:14.370Z,32.20
2018-07-28T14:15:42.019Z,32.60
2018-07-28T14:18:09.657Z,32.80
2018-07-28T14:20:37.410Z,32.80
2018-07-28T14:23:05.077Z,32.70
2018-07-28T14:25:32.694Z,32.70
2018-07-28T14:28:00.262Z,32.60
2018-07-28T14:30:27.877Z,32.50
2018-07-28T14:32:55.607Z,32.50
2018-07-28T14:35:23.232Z,32.50
2018-07-28T14:37:50.843Z,32.40
2018-07-28T14:40:18.408Z,32.30
2018-07-28T14:42:45.972Z,32.10
2018-07-28T14:45:13.529Z,31.80
2018-07-28T14:47:41.127Z,31.60
2018-07-28T14:50:08.752Z,31.50
2018-07-28T14:52:36.570Z,31.20
2018-07-28T14:55:04.423Z,31.00
2018-07-28T14:57:32.061Z,30.80
2018-07-28T14:59:59.589Z,30.60
2018-07-28T15:02:27.210Z,30.40
2018-07-28T15:04:54.814Z,30.40
2018-07-28T15:07:22.406Z,30.30
2018-07-28T15:09:50.016Z,30.20
2018-07-28T15:12:17.589Z,30.10
2018-07-28T15:14:45.172Z,29.90
2018-07-28T15:17:13.630Z,29.90
2018-07-28T15:19:41.180Z,29.90
2018-07-28T15:22:08.826Z,30.00
2018-07-28T15:24:36.406Z,29.90
2018-07-28T15:27:04.096Z,29.80
2018-07-28T15:29:31.697Z,29.70
2018-07-28T15:31:59.390Z,29.70
2018-07-28T15:34:26.975Z,29.60
2018-07-28T15:36:54.586Z,29.50
2018-07-28T15:39:22.181Z,29.50
2018-07-28T15:41:49.720Z,29.50
2018-07-28T15:44:17.284Z,29.40
2018-07-28T15:46:45.549Z,29.20
2018-07-28T15:49:13.110Z,29.10
2018-07-28T15:51:40.698Z,29.00
2018-07-28T15:54:08.245Z,29.00
2018-07-28T15:56:35.864Z,28.90
2018-07-28T15:59:03.427Z,28.80
2018-07-28T16:01:31.052Z,28.80
2018-07-28T16:06:26.165Z,28.70
2018-07-28T16:11:21.223Z,28.80
2018-07-28T16:13:48.806Z,28.80
2018-07-28T16:16:16.378Z,28.80
2018-07-28T16:18:43.967Z,28.90
2018-07-28T16:21:11.560Z,28.90
2018-07-28T16:23:39.177Z,28.90
2018-07-28T16:26:07.117Z,28.90
2018-07-28T16:28:34.687Z,28.90
2018-07-28T16:31:02.293Z,28.80
2018-07-28T16:33:29.897Z,28.70
2018-07-28T16:35:57.491Z,28.70
2018-07-28T16:38:25.107Z,28.70
2018-07-28T16:40:52.751Z,28.60
2018-07-28T16:43:20.335Z,28.40
2018-07-28T16:45:47.957Z,28.40
2018-07-28T16:48:15.600Z,28.20
2018-07-28T16:50:43.221Z,28.10
2018-07-28T16:53:10.798Z,28.00
2018-07-28T16:55:38.955Z,27.90
2018-07-28T16:58:07.249Z,27.90
2018-07-28T17:00:34.813Z,27.80
2018-07-28T17:03:02.430Z,27.70
2018-07-28T17:05:30.008Z,27.60
2018-07-28T17:07:57.557Z,27.60
2018-07-28T17:10:25.147Z,27.60
2018-07-28T17:12:52.755Z,27.50
2018-07-28T17:15:20.432Z,27.60
2018-07-28T17:17:48.002Z,27.60
2018-07-28T17:20:15.603Z,27.60
2018-07-28T17:22:43.343Z,27.50
2018-07-28T17:25:10.813Z,27.60
2018-07-28T17:27:38.371Z,27.50
2018-07-28T17:30:06.049Z,27.60
2018-07-28T17:35:01.836Z,27.50
2018-07-28T17:37:29.508Z,27.40
2018-07-28T17:39:57.072Z,27.30
2018-07-28T17:42:24.944Z,27.20
2018-07-28T17:44:52.564Z,27.20
2018-07-28T17:47:20.172Z,27.20
2018-07-28T17:49:47.781Z,27.20
2018-07-28T17:52:15.462Z,27.20
2018-07-28T17:54:43.120Z,27.10
2018-07-28T17:57:10.804Z,27.00
2018-07-28T17:59:38.428Z,27.00
2018-07-28T18:02:06.216Z,26.90
2018-07-28T18:04:33.813Z,26.90
2018-07-28T18:07:01.440Z,26.80
2018-07-28T18:09:29.032Z,26.80
2018-07-28T18:11:56.657Z,26.70
2018-07-28T18:14:25.260Z,26.70
2018-07-28T18:16:52.887Z,26.70
2018-07-28T18:19:20.597Z,26.70
2018-07-28T18:21:48.237Z,26.60
2018-07-28T18:24:15.872Z,26.60
2018-07-28T18:26:43.547Z,26.60
2018-07-28T18:29:11.160Z,26.60
2018-07-28T18:31:38.799Z,26.50
2018-07-28T18:34:06.492Z,26.40
2018-07-28T18:36:34.297Z,26.30
2018-07-28T18:39:02.060Z,26.20
2018-07-28T18:41:29.740Z,26.10
2018-07-28T18:43:57.359Z,26.00
2018-07-28T18:46:24.986Z,25.90
2018-07-28T18:51:20.261Z,25.90
2018-07-28T18:53:47.831Z,25.80
2018-07-28T18:56:15.423Z,25.70
2018-07-28T18:58:43.092Z,25.70
2018-07-28T19:01:10.678Z,25.70
2018-07-28T19:03:38.357Z,25.70
2018-07-28T19:06:05.983Z,25.70
2018-07-28T19:08:33.573Z,25.60
2018-07-28T19:11:01.181Z,25.60
2018-07-28T19:13:34.280Z,25.60
2018-07-28T19:16:01.940Z,25.60
2018-07-28T19:18:35.128Z,25.50
2018-07-28T19:21:02.766Z,25.50
2018-07-28T19:23:36.012Z,25.50
2018-07-28T19:26:03.696Z,25.40
2018-07-28T19:28:36.816Z,25.50
2018-07-28T19:31:04.527Z,25.40
2018-07-28T19:33:32.077Z,25.50
2018-07-28T19:36:05.350Z,25.50
2018-07-28T19:38:33.070Z,25.50
2018-07-28T19:41:00.800Z,25.50
2018-07-28T19:43:28.463Z,25.50
2018-07-28T19:45:56.063Z,25.50
2018-07-28T19:48:23.670Z,25.50
2018-07-28T19:50:51.310Z,25.50
2018-07-28T19:53:18.960Z,25.40
2018-07-28T19:55:46.573Z,25.40
2018-07-28T19:58:14.232Z,25.40
2018-07-28T20:00:41.811Z,25.30
2018-07-28T20:03:09.411Z,25.30
2018-07-28T20:05:37.025Z,25.30
2018-07-28T20:08:04.578Z,25.20
2018-07-28T20:10:32.161Z,25.20
2018-07-28T20:12:59.805Z,25.20
2018-07-28T20:15:27.402Z,25.20
2018-07-28T20:17:56.766Z,25.20
2018-07-28T20:20:24.319Z,25.20
2018-07-28T20:22:51.896Z,25.20
2018-07-28T20:25:19.492Z,25.20
2018-07-28T20:27:47.137Z,25.10
2018-07-28T20:30:14.735Z,25.20
2018-07-28T20:32:44.319Z,25.20
2018-07-28T20:35:12.002Z,25.10
2018-07-28T20:37:39.567Z,25.10
2018-07-28T20:40:07.253Z,25.00
2018-07-28T20:42:34.924Z,25.00
2018-07-28T20:45:02.649Z,25.00
2018-07-28T20:47:30.270Z,25.00
2018-07-28T20:49:57.853Z,25.00
2018-07-28T20:52:25.426Z,25.00
2018-07-28T20:54:53.051Z,25.00
2018-07-28T20:57:20.620Z,25.00
2018-07-28T20:59:48.190Z,25.00
2018-07-28T21:02:15.792Z,25.00
2018-07-28T21:04:43.500Z,25.00
2018-07-28T21:07:11.105Z,25.00
2018-07-28T21:09:38.640Z,25.00
2018-07-28T21:12:06.299Z,25.00
2018-07-28T21:14:33.882Z,25.00
2018-07-28T21:17:01.507Z,25.00
2018-07-28T21:19:29.145Z,24.90
2018-07-28T21:21:56.748Z,24.90
2018-07-28T21:24:24.340Z,25.00
2018-07-28T21:26:51.964Z,24.90
2018-07-28T21:29:19.573Z,24.90
2018-07-28T21:31:47.179Z,24.90
2018-07-28T21:34:14.814Z,24.80
2018-07-28T21:36:42.492Z,24.80
2018-07-28T21:39:10.469Z,24.70
2018-07-28T21:41:38.168Z,24.80
2018-07-28T21:44:05.806Z,24.70
2018-07-28T21:46:34.100Z,24.70
2018-07-28T21:49:01.740Z,24.70
2018-07-28T21:51:29.363Z,24.70
2018-07-28T21:53:57.193Z,24.70
2018-07-28T21:56:24.812Z,24.70
2018-07-28T21:58:54.011Z,24.60
2018-07-28T22:01:21.725Z,24.60
2018-07-28T22:03:49.304Z,24.60
2018-07-28T22:06:16.900Z,24.60
2018-07-28T22:08:44.640Z,24.60
2018-07-28T22:11:12.229Z,24.60
2018-07-28T22:13:39.896Z,24.60
2018-07-28T22:16:07.516Z,24.60
2018-07-28T22:18:35.076Z,24.60
2018-07-28T22:21:02.737Z,24.60
2018-07-28T22:23:30.377Z,24.60
2018-07-28T22:25:58.361Z,24.70
2018-07-28T22:28:26.027Z,24.60
2018-07-28T22:30:53.681Z,24.60
2018-07-28T22:33:21.313Z,24.60
2018-07-28T22:35:48.914Z,24.60
2018-07-28T22:38:16.528Z,24.60
2018-07-28T22:43:11.627Z,24.60
2018-07-28T22:45:39.210Z,24.50
2018-07-28T22:48:06.850Z,24.50
2018-07-28T22:50:34.430Z,24.50
2018-07-28T22:53:02.204Z,24.40
2018-07-28T22:55:29.843Z,24.40
2018-07-28T22:57:57.661Z,24.30
2018-07-28T23:00:25.244Z,24.30
2018-07-28T23:02:52.849Z,24.30
2018-07-28T23:05:21.441Z,24.20
2018-07-28T23:07:49.056Z,24.20
2018-07-28T23:10:16.585Z,24.20
2018-07-28T23:12:44.199Z,24.10
2018-07-28T23:17:39.563Z,24.10
2018-07-28T23:20:07.221Z,24.10
2018-07-28T23:22:34.804Z,24.00
2018-07-28T23:25:02.401Z,24.10
2018-07-28T23:27:30.028Z,24.10
2018-07-28T23:29:57.591Z,24.00
2018-07-28T23:32:25.150Z,24.00
2018-07-28T23:34:52.734Z,23.90
2018-07-28T23:37:20.366Z,23.90
2018-07-28T23:39:48.790Z,23.80
2018-07-28T23:42:16.448Z,23.80
2018-07-28T23:44:44.054Z,23.80
2018-07-28T23:47:11.680Z,23.80
2018-07-28T23:49:39.274Z,23.80
2018-07-28T23:52:06.876Z,23.70
2018-07-28T23:54:34.451Z,23.70
2018-07-28T23:57:02.079Z,23.70
2018-07-28T23:59:29.662Z,23.60
